AirNav   ProFlight Series 2 Aviation Headset
 
 1094 users online  

8M6 Mc Ville Municipal Airport
Mc Ville, North Dakota, USA

GOING TO MC VILLE?


FAA INFORMATION EFFECTIVE 16 JULY 2020

Location

FAA Identifier: 8M6
Lat/Long: 47-46-13.1400N 098-11-05.6900W
47-46.219000N 098-11.094833W
47.7703167,-98.1849139
(estimated)
Elevation: 1473 ft. / 449 m (estimated)
Variation: 07E (1985)
From city: 1 mile NW of MC VILLE, ND
Time zone: UTC -5 (UTC -6 during Standard Time)
Zip code: 58254

Airport Operations

Airport use: Open to the public
Activation date: 11/1947
Control tower: no
ARTCC: MINNEAPOLIS CENTER
FSS: GRAND FORKS FLIGHT SERVICE STATION
NOTAMs facility: GFK (NOTAM-D service available)
Attendance: UNATNDD
Wind indicator: yes
Segmented circle: no
Lights: ACTIVATE LIRL RY 13/31 - CTAF.

Airport Communications

CTAF: 122.9

Nearby radio navigation aids

VOR radial/distance  VOR name  Freq  Var
DVLr118/35.8DEVILS LAKE VOR/DME111.0007E

Airport Services

Parking: tiedowns
Airframe service: NONE
Powerplant service: NONE
Bottled oxygen: NONE
Bulk oxygen: NONE

Runway Information

Runway 18/36

Dimensions: 2500 x 90 ft. / 762 x 27 m
Surface: turf, in good condition
RUNWAY 18  RUNWAY 36
Latitude: 47-46.416333N47-46.005167N
Longitude: 098-10.989333W098-10.989333W
Elevation: 1473.0 ft.1473.0 ft.
Traffic pattern: leftleft
Markings: nonenone
Runway end identifier lights: nono
Obstructions: 18 ft. road, 95 ft. left of centerline
HAS ROAD 40 FT FM THLD; L AND R OF CNTRLN; APCH RATIO 2:1.
18 ft. road, 105 ft. right of centerline
HAS ROAD 48 FT FM THLD; L AND R OF CNTRLN; APCH RATIO 2:1.

Runway 13/31

Dimensions: 2277 x 100 ft. / 694 x 30 m
200 FT TURF STWY ON NW END & 500 FT TURF STWY ON SE END.
Surface: turf, in good condition
TURF SFC ROLLING.
Runway edge lights: low intensity
RUNWAY 13  RUNWAY 31
Latitude: 47-46.381667N47-46.074500N
Longitude: 098-11.369500W098-11.051667W
Elevation: 1461.0 ft.1463.0 ft.
Traffic pattern: leftleft
Runway heading: 138 magnetic, 145 true318 magnetic, 325 true
Markings: nonenone
Runway end identifier lights: nono
Obstructions: 19 ft. road, 210 ft. from runway, 150 ft. both sides of centerline, 11:1 slope to clear18 ft. bldg, 275 ft. from runway, 125 ft. left of centerline, 15:1 slope to clear

Airport Ownership and Management from official FAA records

Ownership: Publicly-owned
Owner: CITY OF MC VILLE
PO BOX 275
MC VILLE, ND 58254
Phone 701-322-4343
CHANDA ARNESON - CITY AUDITOR 701-322-4343.
Manager: NEIL REITEN
PO BOX 275
MCVILLE, ND 58254
Phone (701) 739-1345

Airport Operational Statistics

Aircraft based on the field: 3
Single engine airplanes: 3
    
Aircraft operations: avg 68/month *
62% transient general aviation
37% local general aviation
1% air taxi
* for 12-month period ending 19 May 2020

Additional Remarks

CALL AMGR TO CONFIRM SNOW REMOVAL 701-270-2820.
FOR CD CTC MINNEAPOLIS ARTCC AT 651-463-5588.
RWY 36 HAS MULTIPLE 110 FT BLDGS 1400 FT FM THLD; L AND R OF CNTRLN; APCH RATIO 12:1.

Instrument Procedures

There are no published instrument procedures at 8M6.

Some nearby airports with instrument procedures:

5L0 - Lakota Municipal Airport (17 nm N)
S32 - Cooperstown Municipal Airport (21 nm S)
4V4 - Northwood Municipal Airport-Vince Field (24 nm E)
KRDR - Grand Forks Air Force Base (34 nm E)
KDVL - Devils Lake Regional Airport (36 nm NW)
 
Loc | Ops | Rwys | IFR | FBO | Links
Com | Nav | Svcs | Stats | Notes

Bismarck Aero Center
AirBoss

 
Area around 8M6 (Mc Ville Municipal Airport)
 
Road maps at: MapQuest Bing Google
 
Aerial photo
WARNING: Photo may not be current or correct
Aerial photo of 8M6 (Mc Ville Municipal Airport)
Do you have a better or more recent aerial photo of Mc Ville Municipal Airport that you would like to share? If so, please send us your photo.

 
Sectional chart

 
Airport distance calculator
Flying to Mc Ville Municipal Airport? Find the distance to fly.

From to 8M6

Sunrise and sunset
Times for 06-Aug-2020
 Local
(UTC-5)
 Zulu
(UTC)
Morning civil twilight05:4310:43
Sunrise06:1811:18
Sunset20:5801:58
Evening civil twilight21:3402:34

Current date and time
Zulu (UTC)  06-Aug-2020 23:38:01
Local (UTC-5)  06-Aug-2020 18:38:01
 
METAR
KS32 
21nm S 
062315Z AUTO 14008G13KT 10SM FEW039 FEW047 25/18 A2991 RMK AO2
KRDR 
34nm E 
062256Z AUTO 16007KT 10SM SCT047 27/18 A2990 RMK AO2 SLP127 T02710178 $
KDVL 
36nm NW 
062256Z AUTO 15008KT 10SM CLR 26/17 A2990 RMK AO2 SLP706 T02560167
KGFK 
42nm E 
062253Z 17007KT 10SM SCT050 27/16 A2989 RMK AO2 SLP120 T02720156
TAF
KRDR 
34nm E 
061800Z 0618/0724 16009KT 9999 SCT040 QNH2988INS BECMG 0708/0709 16006KT 8000 BR OVC005 QNH2982INS BECMG 0715/0716 15010G15KT 8000 -SHRA OVC010 QNH2972INS TX27/0621Z TN17/0709Z
KDVL 
36nm NW 
061720Z 0618/0718 16005KT P6SM SCT080 FM070600 15010KT P6SM FEW250 FM071300 16010KT P6SM OVC020
KGFK 
42nm E 
061720Z 0618/0718 16008KT P6SM SCT030 FM071200 15012KT P6SM BKN030
NOTAMs
Click for the latest NOTAMs
NOTAMs are issued by the DoD/FAA and will open in a separate window not controlled by AirNav.

 

 
 

Would you like to see your business listed on this page?

 If your business provides an interesting product or service to pilots, flight crews, aircraft, or users of the Mc Ville Municipal Airport, you should consider listing it here.  To start the listing process, click on the button below
 
Add a business
 

Other Pages about Mc Ville Municipal Airport

Update a link
 
Copyright © AirNav, LLC. All rights reserved. Privacy Policy  Contact